sensor_id;sensor_type;location;lat;lon;timestamp;P1;durP1;ratioP1;P2;durP2;ratioP2
7831;SDS011;3961;42.058;25.586;2023-04-06T00:00:25;9.77;;;8.33;;
7831;SDS011;3961;42.058;25.586;2023-04-06T00:02:51;12.37;;;9.03;;
7831;SDS011;3961;42.058;25.586;2023-04-06T00:05:17;11.33;;;8.97;;
7831;SDS011;3961;42.058;25.586;2023-04-06T00:07:44;12.67;;;9.60;;
7831;SDS011;3961;42.058;25.586;2023-04-06T00:10:10;9.30;;;7.80;;
7831;SDS011;3961;42.058;25.586;2023-04-06T00:12:36;11.33;;;8.77;;
7831;SDS011;3961;42.058;25.586;2023-04-06T00:15:01;11.93;;;8.67;;
7831;SDS011;3961;42.058;25.586;2023-04-06T00:17:27;11.70;;;9.27;;
7831;SDS011;3961;42.058;25.586;2023-04-06T00:19:53;12.77;;;9.67;;
7831;SDS011;3961;42.058;25.586;2023-04-06T00:22:18;11.03;;;9.53;;
7831;SDS011;3961;42.058;25.586;2023-04-06T00:24:44;14.07;;;10.53;;
7831;SDS011;3961;42.058;25.586;2023-04-06T00:27:09;10.67;;;8.63;;
7831;SDS011;3961;42.058;25.586;2023-04-06T00:29:35;13.60;;;9.73;;
7831;SDS011;3961;42.058;25.586;2023-04-06T00:32:01;11.17;;;9.23;;
7831;SDS011;3961;42.058;25.586;2023-04-06T00:34:27;11.73;;;9.53;;
7831;SDS011;3961;42.058;25.586;2023-04-06T00:36:53;13.70;;;9.80;;
7831;SDS011;3961;42.058;25.586;2023-04-06T00:39:18;14.10;;;9.97;;
7831;SDS011;3961;42.058;25.586;2023-04-06T00:41:46;14.80;;;9.83;;
7831;SDS011;3961;42.058;25.586;2023-04-06T00:44:15;13.17;;;9.80;;
7831;SDS011;3961;42.058;25.586;2023-04-06T00:46:41;12.20;;;9.03;;
7831;SDS011;3961;42.058;25.586;2023-04-06T00:49:06;12.03;;;9.67;;
7831;SDS011;3961;42.058;25.586;2023-04-06T00:51:32;12.33;;;9.67;;
7831;SDS011;3961;42.058;25.586;2023-04-06T00:53:57;12.23;;;9.73;;
7831;SDS011;3961;42.058;25.586;2023-04-06T00:56:23;12.23;;;10.13;;
7831;SDS011;3961;42.058;25.586;2023-04-06T00:58:49;12.07;;;9.90;;
7831;SDS011;3961;42.058;25.586;2023-04-06T01:01:15;12.83;;;9.97;;
7831;SDS011;3961;42.058;25.586;2023-04-06T01:03:41;12.63;;;9.93;;
7831;SDS011;3961;42.058;25.586;2023-04-06T01:06:07;13.53;;;10.03;;
7831;SDS011;3961;42.058;25.586;2023-04-06T01:08:33;15.00;;;9.53;;
7831;SDS011;3961;42.058;25.586;2023-04-06T01:11:01;12.50;;;9.50;;
7831;SDS011;3961;42.058;25.586;2023-04-06T01:13:27;17.13;;;10.13;;
7831;SDS011;3961;42.058;25.586;2023-04-06T01:15:52;12.47;;;9.50;;
7831;SDS011;3961;42.058;25.586;2023-04-06T01:18:18;12.33;;;9.53;;
7831;SDS011;3961;42.058;25.586;2023-04-06T01:20:44;12.37;;;9.17;;
7831;SDS011;3961;42.058;25.586;2023-04-06T01:23:09;12.27;;;9.60;;
7831;SDS011;3961;42.058;25.586;2023-04-06T01:25:35;12.47;;;10.13;;
7831;SDS011;3961;42.058;25.586;2023-04-06T01:28:01;11.70;;;9.47;;
7831;SDS011;3961;42.058;25.586;2023-04-06T01:30:26;12.03;;;8.53;;
7831;SDS011;3961;42.058;25.586;2023-04-06T01:32:52;12.80;;;9.23;;
7831;SDS011;3961;42.058;25.586;2023-04-06T01:35:18;13.30;;;9.43;;
7831;SDS011;3961;42.058;25.586;2023-04-06T01:37:44;10.93;;;8.73;;
7831;SDS011;3961;42.058;25.586;2023-04-06T01:40:10;14.23;;;8.33;;
7831;SDS011;3961;42.058;25.586;2023-04-06T01:42:36;11.50;;;8.43;;
7831;SDS011;3961;42.058;25.586;2023-04-06T01:45:02;10.93;;;8.70;;
7831;SDS011;3961;42.058;25.586;2023-04-06T01:47:28;12.47;;;8.30;;
7831;SDS011;3961;42.058;25.586;2023-04-06T01:49:53;10.73;;;8.17;;
7831;SDS011;3961;42.058;25.586;2023-04-06T01:52:19;10.40;;;8.37;;
7831;SDS011;3961;42.058;25.586;2023-04-06T01:54:45;10.80;;;7.63;;
7831;SDS011;3961;42.058;25.586;2023-04-06T01:57:11;9.00;;;7.17;;
7831;SDS011;3961;42.058;25.586;2023-04-06T01:59:36;9.73;;;8.17;;
7831;SDS011;3961;42.058;25.586;2023-04-06T02:02:02;11.30;;;7.70;;
7831;SDS011;3961;42.058;25.586;2023-04-06T02:04:27;9.20;;;7.77;;
7831;SDS011;3961;42.058;25.586;2023-04-06T02:06:53;9.37;;;7.43;;
7831;SDS011;3961;42.058;25.586;2023-04-06T02:09:18;9.30;;;7.03;;
7831;SDS011;3961;42.058;25.586;2023-04-06T02:11:44;9.77;;;7.27;;
7831;SDS011;3961;42.058;25.586;2023-04-06T02:14:10;8.67;;;7.43;;
7831;SDS011;3961;42.058;25.586;2023-04-06T02:16:35;9.97;;;7.90;;
7831;SDS011;3961;42.058;25.586;2023-04-06T02:19:01;13.23;;;7.57;;
7831;SDS011;3961;42.058;25.586;2023-04-06T02:21:27;9.27;;;7.43;;
7831;SDS011;3961;42.058;25.586;2023-04-06T02:23:52;9.60;;;7.30;;
7831;SDS011;3961;42.058;25.586;2023-04-06T02:26:18;10.30;;;7.90;;
7831;SDS011;3961;42.058;25.586;2023-04-06T02:28:45;12.93;;;7.70;;
7831;SDS011;3961;42.058;25.586;2023-04-06T02:31:10;9.50;;;7.53;;
7831;SDS011;3961;42.058;25.586;2023-04-06T02:33:36;11.80;;;8.50;;
7831;SDS011;3961;42.058;25.586;2023-04-06T02:36:02;9.80;;;7.53;;
7831;SDS011;3961;42.058;25.586;2023-04-06T02:38:28;11.83;;;8.00;;
7831;SDS011;3961;42.058;25.586;2023-04-06T02:40:53;9.80;;;7.80;;
7831;SDS011;3961;42.058;25.586;2023-04-06T02:43:19;8.20;;;6.77;;
7831;SDS011;3961;42.058;25.586;2023-04-06T02:45:44;9.33;;;7.30;;
7831;SDS011;3961;42.058;25.586;2023-04-06T02:48:10;7.83;;;6.73;;
7831;SDS011;3961;42.058;25.586;2023-04-06T02:50:36;10.50;;;7.13;;
7831;SDS011;3961;42.058;25.586;2023-04-06T02:53:01;9.97;;;7.50;;
7831;SDS011;3961;42.058;25.586;2023-04-06T02:55:27;8.10;;;6.93;;
7831;SDS011;3961;42.058;25.586;2023-04-06T02:57:52;19.50;;;8.63;;
7831;SDS011;3961;42.058;25.586;2023-04-06T03:00:18;9.67;;;7.67;;
7831;SDS011;3961;42.058;25.586;2023-04-06T03:02:44;12.33;;;8.63;;
7831;SDS011;3961;42.058;25.586;2023-04-06T03:05:10;11.47;;;7.70;;
7831;SDS011;3961;42.058;25.586;2023-04-06T03:07:35;9.53;;;7.77;;
7831;SDS011;3961;42.058;25.586;2023-04-06T03:10:01;10.37;;;7.73;;
7831;SDS011;3961;42.058;25.586;2023-04-06T03:12:26;11.70;;;7.67;;
7831;SDS011;3961;42.058;25.586;2023-04-06T03:14:52;13.13;;;9.40;;
7831;SDS011;3961;42.058;25.586;2023-04-06T03:17:17;11.00;;;8.10;;
7831;SDS011;3961;42.058;25.586;2023-04-06T03:19:43;12.13;;;8.70;;
7831;SDS011;3961;42.058;25.586;2023-04-06T03:22:08;11.33;;;8.40;;
7831;SDS011;3961;42.058;25.586;2023-04-06T03:24:34;10.97;;;8.47;;
7831;SDS011;3961;42.058;25.586;2023-04-06T03:27:00;11.93;;;8.87;;
7831;SDS011;3961;42.058;25.586;2023-04-06T03:29:25;11.67;;;8.77;;
7831;SDS011;3961;42.058;25.586;2023-04-06T03:31:51;11.77;;;8.70;;
7831;SDS011;3961;42.058;25.586;2023-04-06T03:34:16;13.17;;;9.37;;
7831;SDS011;3961;42.058;25.586;2023-04-06T03:36:42;15.07;;;9.50;;
7831;SDS011;3961;42.058;25.586;2023-04-06T03:39:07;10.73;;;8.97;;
7831;SDS011;3961;42.058;25.586;2023-04-06T03:41:33;11.53;;;8.67;;
7831;SDS011;3961;42.058;25.586;2023-04-06T03:43:58;15.47;;;9.43;;
7831;SDS011;3961;42.058;25.586;2023-04-06T03:46:24;14.03;;;9.13;;
7831;SDS011;3961;42.058;25.586;2023-04-06T03:48:50;11.77;;;8.80;;
7831;SDS011;3961;42.058;25.586;2023-04-06T03:51:15;17.23;;;9.20;;
7831;SDS011;3961;42.058;25.586;2023-04-06T03:53:41;13.37;;;8.07;;
7831;SDS011;3961;42.058;25.586;2023-04-06T03:56:06;12.33;;;9.47;;
7831;SDS011;3961;42.058;25.586;2023-04-06T03:58:32;11.00;;;7.80;;
7831;SDS011;3961;42.058;25.586;2023-04-06T04:00:57;13.17;;;8.83;;
7831;SDS011;3961;42.058;25.586;2023-04-06T04:03:23;11.60;;;8.90;;
7831;SDS011;3961;42.058;25.586;2023-04-06T04:05:51;12.33;;;9.07;;
7831;SDS011;3961;42.058;25.586;2023-04-06T04:08:16;10.03;;;8.17;;
7831;SDS011;3961;42.058;25.586;2023-04-06T04:10:42;12.37;;;9.47;;
7831;SDS011;3961;42.058;25.586;2023-04-06T04:13:07;13.23;;;9.00;;
7831;SDS011;3961;42.058;25.586;2023-04-06T04:15:33;13.43;;;8.80;;
7831;SDS011;3961;42.058;25.586;2023-04-06T04:17:58;14.83;;;9.07;;
7831;SDS011;3961;42.058;25.586;2023-04-06T04:20:24;13.40;;;9.60;;
7831;SDS011;3961;42.058;25.586;2023-04-06T04:22:49;12.27;;;8.87;;
7831;SDS011;3961;42.058;25.586;2023-04-06T04:25:15;11.87;;;8.80;;
7831;SDS011;3961;42.058;25.586;2023-04-06T04:27:40;14.40;;;9.40;;
7831;SDS011;3961;42.058;25.586;2023-04-06T04:30:06;15.53;;;9.40;;
7831;SDS011;3961;42.058;25.586;2023-04-06T04:32:32;12.50;;;9.93;;
7831;SDS011;3961;42.058;25.586;2023-04-06T04:34:57;13.10;;;8.80;;
7831;SDS011;3961;42.058;25.586;2023-04-06T04:37:23;10.20;;;8.20;;
7831;SDS011;3961;42.058;25.586;2023-04-06T04:39:48;11.10;;;8.87;;
7831;SDS011;3961;42.058;25.586;2023-04-06T04:42:14;12.33;;;8.93;;
7831;SDS011;3961;42.058;25.586;2023-04-06T04:44:40;10.67;;;8.63;;
7831;SDS011;3961;42.058;25.586;2023-04-06T04:47:06;11.23;;;8.47;;
7831;SDS011;3961;42.058;25.586;2023-04-06T04:49:31;12.77;;;8.60;;
7831;SDS011;3961;42.058;25.586;2023-04-06T04:51:57;10.83;;;8.80;;
7831;SDS011;3961;42.058;25.586;2023-04-06T04:54:22;11.57;;;8.53;;
7831;SDS011;3961;42.058;25.586;2023-04-06T04:56:48;15.80;;;9.03;;
7831;SDS011;3961;42.058;25.586;2023-04-06T04:59:13;12.10;;;8.70;;
7831;SDS011;3961;42.058;25.586;2023-04-06T05:01:39;11.97;;;8.50;;
7831;SDS011;3961;42.058;25.586;2023-04-06T05:04:05;12.90;;;8.87;;
7831;SDS011;3961;42.058;25.586;2023-04-06T05:06:30;10.97;;;8.93;;
7831;SDS011;3961;42.058;25.586;2023-04-06T05:08:56;13.33;;;9.23;;
7831;SDS011;3961;42.058;25.586;2023-04-06T05:11:21;9.47;;;7.97;;
7831;SDS011;3961;42.058;25.586;2023-04-06T05:13:47;12.57;;;9.37;;
7831;SDS011;3961;42.058;25.586;2023-04-06T05:16:12;12.77;;;9.80;;
7831;SDS011;3961;42.058;25.586;2023-04-06T05:18:38;12.50;;;9.17;;
7831;SDS011;3961;42.058;25.586;2023-04-06T05:21:03;14.40;;;9.70;;
7831;SDS011;3961;42.058;25.586;2023-04-06T05:23:29;12.47;;;8.63;;
7831;SDS011;3961;42.058;25.586;2023-04-06T05:25:55;11.97;;;8.33;;
7831;SDS011;3961;42.058;25.586;2023-04-06T05:28:20;11.83;;;8.70;;
7831;SDS011;3961;42.058;25.586;2023-04-06T05:30:46;12.20;;;8.53;;
7831;SDS011;3961;42.058;25.586;2023-04-06T05:33:12;12.43;;;8.60;;
7831;SDS011;3961;42.058;25.586;2023-04-06T05:35:39;16.97;;;9.30;;
7831;SDS011;3961;42.058;25.586;2023-04-06T05:38:07;13.37;;;8.93;;
7831;SDS011;3961;42.058;25.586;2023-04-06T05:40:33;11.97;;;8.87;;
7831;SDS011;3961;42.058;25.586;2023-04-06T05:42:59;11.80;;;9.47;;
7831;SDS011;3961;42.058;25.586;2023-04-06T05:45:24;13.47;;;9.27;;
7831;SDS011;3961;42.058;25.586;2023-04-06T05:47:50;11.83;;;9.30;;
7831;SDS011;3961;42.058;25.586;2023-04-06T05:50:15;11.90;;;8.63;;
7831;SDS011;3961;42.058;25.586;2023-04-06T05:52:41;11.63;;;9.10;;
7831;SDS011;3961;42.058;25.586;2023-04-06T05:55:08;14.10;;;9.30;;
7831;SDS011;3961;42.058;25.586;2023-04-06T05:57:34;10.53;;;8.50;;
7831;SDS011;3961;42.058;25.586;2023-04-06T05:59:59;15.80;;;9.40;;
7831;SDS011;3961;42.058;25.586;2023-04-06T06:02:25;13.20;;;8.90;;
7831;SDS011;3961;42.058;25.586;2023-04-06T06:04:51;20.03;;;10.03;;
7831;SDS011;3961;42.058;25.586;2023-04-06T06:07:16;12.90;;;8.33;;
7831;SDS011;3961;42.058;25.586;2023-04-06T06:09:42;14.63;;;11.40;;
7831;SDS011;3961;42.058;25.586;2023-04-06T06:12:08;14.87;;;9.87;;
7831;SDS011;3961;42.058;25.586;2023-04-06T06:14:33;11.80;;;8.77;;
7831;SDS011;3961;42.058;25.586;2023-04-06T06:16:59;10.10;;;8.27;;
7831;SDS011;3961;42.058;25.586;2023-04-06T06:19:24;19.57;;;12.63;;
7831;SDS011;3961;42.058;25.586;2023-04-06T06:21:50;15.70;;;10.73;;
7831;SDS011;3961;42.058;25.586;2023-04-06T06:24:16;20.23;;;10.40;;
7831;SDS011;3961;42.058;25.586;2023-04-06T06:26:41;10.83;;;8.27;;
7831;SDS011;3961;42.058;25.586;2023-04-06T06:29:08;13.00;;;9.23;;
7831;SDS011;3961;42.058;25.586;2023-04-06T06:31:33;17.13;;;8.83;;
7831;SDS011;3961;42.058;25.586;2023-04-06T06:34:00;14.17;;;9.63;;
7831;SDS011;3961;42.058;25.586;2023-04-06T06:36:27;13.10;;;9.67;;
7831;SDS011;3961;42.058;25.586;2023-04-06T06:38:52;14.23;;;8.30;;
7831;SDS011;3961;42.058;25.586;2023-04-06T06:41:18;12.17;;;8.53;;
7831;SDS011;3961;42.058;25.586;2023-04-06T06:43:43;14.60;;;8.63;;
7831;SDS011;3961;42.058;25.586;2023-04-06T06:46:09;11.37;;;8.70;;
7831;SDS011;3961;42.058;25.586;2023-04-06T06:48:35;17.20;;;9.53;;
7831;SDS011;3961;42.058;25.586;2023-04-06T06:51:00;11.07;;;8.47;;
7831;SDS011;3961;42.058;25.586;2023-04-06T06:53:26;11.80;;;8.10;;
7831;SDS011;3961;42.058;25.586;2023-04-06T06:55:52;18.27;;;8.67;;
7831;SDS011;3961;42.058;25.586;2023-04-06T06:58:18;9.90;;;7.27;;
7831;SDS011;3961;42.058;25.586;2023-04-06T07:00:47;9.17;;;6.80;;
7831;SDS011;3961;42.058;25.586;2023-04-06T07:03:12;8.37;;;6.90;;
7831;SDS011;3961;42.058;25.586;2023-04-06T07:05:38;11.37;;;7.50;;
7831;SDS011;3961;42.058;25.586;2023-04-06T07:08:03;9.00;;;7.47;;
7831;SDS011;3961;42.058;25.586;2023-04-06T07:10:29;14.90;;;8.87;;
7831;SDS011;3961;42.058;25.586;2023-04-06T07:12:55;10.73;;;6.93;;
7831;SDS011;3961;42.058;25.586;2023-04-06T07:15:21;12.93;;;7.77;;
7831;SDS011;3961;42.058;25.586;2023-04-06T07:17:46;10.53;;;7.23;;
7831;SDS011;3961;42.058;25.586;2023-04-06T07:20:12;10.23;;;7.93;;
7831;SDS011;3961;42.058;25.586;2023-04-06T07:22:38;9.83;;;8.03;;
7831;SDS011;3961;42.058;25.586;2023-04-06T07:25:04;15.67;;;7.80;;
7831;SDS011;3961;42.058;25.586;2023-04-06T07:27:31;11.77;;;7.80;;
7831;SDS011;3961;42.058;25.586;2023-04-06T07:29:56;10.40;;;7.73;;
7831;SDS011;3961;42.058;25.586;2023-04-06T07:32:22;8.70;;;7.03;;
7831;SDS011;3961;42.058;25.586;2023-04-06T07:34:47;16.80;;;7.83;;
7831;SDS011;3961;42.058;25.586;2023-04-06T07:37:13;11.70;;;7.37;;
7831;SDS011;3961;42.058;25.586;2023-04-06T07:39:38;11.47;;;7.73;;
7831;SDS011;3961;42.058;25.586;2023-04-06T07:42:05;10.63;;;7.80;;
7831;SDS011;3961;42.058;25.586;2023-04-06T07:44:31;9.03;;;6.80;;
7831;SDS011;3961;42.058;25.586;2023-04-06T07:46:56;10.13;;;7.20;;
7831;SDS011;3961;42.058;25.586;2023-04-06T07:49:22;9.57;;;7.40;;
7831;SDS011;3961;42.058;25.586;2023-04-06T07:51:48;9.43;;;7.30;;
7831;SDS011;3961;42.058;25.586;2023-04-06T07:54:13;11.63;;;8.17;;
7831;SDS011;3961;42.058;25.586;2023-04-06T07:56:39;11.73;;;8.17;;
7831;SDS011;3961;42.058;25.586;2023-04-06T07:59:05;9.30;;;7.57;;
7831;SDS011;3961;42.058;25.586;2023-04-06T08:01:30;8.90;;;6.87;;
7831;SDS011;3961;42.058;25.586;2023-04-06T08:03:56;10.50;;;6.77;;
7831;SDS011;3961;42.058;25.586;2023-04-06T08:06:22;10.93;;;7.10;;
7831;SDS011;3961;42.058;25.586;2023-04-06T08:08:47;10.53;;;7.63;;
7831;SDS011;3961;42.058;25.586;2023-04-06T08:11:13;9.00;;;7.37;;
7831;SDS011;3961;42.058;25.586;2023-04-06T08:13:38;8.83;;;7.33;;
7831;SDS011;3961;42.058;25.586;2023-04-06T08:16:04;9.13;;;7.60;;
7831;SDS011;3961;42.058;25.586;2023-04-06T08:18:30;9.07;;;6.83;;
7831;SDS011;3961;42.058;25.586;2023-04-06T08:20:55;8.37;;;6.73;;
7831;SDS011;3961;42.058;25.586;2023-04-06T08:23:22;11.00;;;7.27;;
7831;SDS011;3961;42.058;25.586;2023-04-06T08:25:47;10.43;;;7.77;;
7831;SDS011;3961;42.058;25.586;2023-04-06T08:28:13;9.97;;;7.20;;
7831;SDS011;3961;42.058;25.586;2023-04-06T08:30:41;9.47;;;6.57;;
7831;SDS011;3961;42.058;25.586;2023-04-06T08:33:08;8.00;;;6.47;;
7831;SDS011;3961;42.058;25.586;2023-04-06T08:35:34;8.77;;;7.07;;
7831;SDS011;3961;42.058;25.586;2023-04-06T08:37:59;7.60;;;6.40;;
7831;SDS011;3961;42.058;25.586;2023-04-06T08:40:25;8.57;;;6.67;;
7831;SDS011;3961;42.058;25.586;2023-04-06T08:42:52;9.23;;;6.80;;
7831;SDS011;3961;42.058;25.586;2023-04-06T08:45:20;8.40;;;6.40;;
7831;SDS011;3961;42.058;25.586;2023-04-06T08:47:50;10.23;;;6.77;;
7831;SDS011;3961;42.058;25.586;2023-04-06T08:50:17;9.10;;;6.23;;
7831;SDS011;3961;42.058;25.586;2023-04-06T08:52:43;8.83;;;6.40;;
7831;SDS011;3961;42.058;25.586;2023-04-06T08:55:12;8.23;;;6.13;;
7831;SDS011;3961;42.058;25.586;2023-04-06T08:57:38;7.53;;;5.97;;
7831;SDS011;3961;42.058;25.586;2023-04-06T09:00:04;8.00;;;6.77;;
7831;SDS011;3961;42.058;25.586;2023-04-06T09:02:32;10.63;;;7.20;;
7831;SDS011;3961;42.058;25.586;2023-04-06T09:04:58;9.73;;;6.90;;
7831;SDS011;3961;42.058;25.586;2023-04-06T09:07:25;10.67;;;7.80;;
7831;SDS011;3961;42.058;25.586;2023-04-06T09:09:50;8.20;;;7.07;;
7831;SDS011;3961;42.058;25.586;2023-04-06T09:12:23;14.73;;;8.40;;
7831;SDS011;3961;42.058;25.586;2023-04-06T09:14:48;9.63;;;7.33;;
7831;SDS011;3961;42.058;25.586;2023-04-06T09:17:28;7.17;;;5.73;;
7831;SDS011;3961;42.058;25.586;2023-04-06T09:19:55;10.80;;;6.57;;
7831;SDS011;3961;42.058;25.586;2023-04-06T09:22:22;7.97;;;6.60;;
7831;SDS011;3961;42.058;25.586;2023-04-06T09:24:51;7.27;;;6.17;;
7831;SDS011;3961;42.058;25.586;2023-04-06T09:27:18;10.10;;;6.33;;
7831;SDS011;3961;42.058;25.586;2023-04-06T09:30:02;9.90;;;6.33;;
7831;SDS011;3961;42.058;25.586;2023-04-06T09:32:54;6.27;;;4.80;;
7831;SDS011;3961;42.058;25.586;2023-04-06T09:35:22;7.93;;;6.40;;
7831;SDS011;3961;42.058;25.586;2023-04-06T09:37:49;6.27;;;5.60;;
7831;SDS011;3961;42.058;25.586;2023-04-06T09:40:16;5.27;;;4.70;;
7831;SDS011;3961;42.058;25.586;2023-04-06T09:42:46;8.87;;;5.47;;
7831;SDS011;3961;42.058;25.586;2023-04-06T09:45:13;7.70;;;5.40;;
7831;SDS011;3961;42.058;25.586;2023-04-06T09:47:40;6.10;;;5.33;;
7831;SDS011;3961;42.058;25.586;2023-04-06T09:50:09;12.67;;;5.50;;
7831;SDS011;3961;42.058;25.586;2023-04-06T09:52:40;7.13;;;4.93;;
7831;SDS011;3961;42.058;25.586;2023-04-06T09:55:08;7.07;;;4.70;;
7831;SDS011;3961;42.058;25.586;2023-04-06T09:57:43;6.47;;;5.73;;
7831;SDS011;3961;42.058;25.586;2023-04-06T10:00:14;19.73;;;6.77;;
7831;SDS011;3961;42.058;25.586;2023-04-06T10:08:10;6.63;;;4.30;;
7831;SDS011;3961;42.058;25.586;2023-04-06T10:10:36;5.50;;;4.10;;
7831;SDS011;3961;42.058;25.586;2023-04-06T10:13:02;4.97;;;4.40;;
7831;SDS011;3961;42.058;25.586;2023-04-06T10:15:29;4.57;;;4.07;;
7831;SDS011;3961;42.058;25.586;2023-04-06T10:17:58;5.77;;;4.73;;
7831;SDS011;3961;42.058;25.586;2023-04-06T10:25:58;5.17;;;4.67;;
7831;SDS011;3961;42.058;25.586;2023-04-06T10:28:25;5.70;;;4.60;;
7831;SDS011;3961;42.058;25.586;2023-04-06T10:31:01;5.27;;;4.10;;
7831;SDS011;3961;42.058;25.586;2023-04-06T10:33:29;6.90;;;5.00;;
7831;SDS011;3961;42.058;25.586;2023-04-06T10:35:55;5.50;;;4.90;;
7831;SDS011;3961;42.058;25.586;2023-04-06T10:38:21;5.07;;;4.57;;
7831;SDS011;3961;42.058;25.586;2023-04-06T10:41:03;4.77;;;4.17;;
7831;SDS011;3961;42.058;25.586;2023-04-06T10:43:36;4.70;;;3.90;;
7831;SDS011;3961;42.058;25.586;2023-04-06T10:46:06;5.30;;;4.70;;
7831;SDS011;3961;42.058;25.586;2023-04-06T10:48:44;8.67;;;4.93;;
7831;SDS011;3961;42.058;25.586;2023-04-06T10:51:15;5.07;;;4.57;;
7831;SDS011;3961;42.058;25.586;2023-04-06T10:53:42;4.70;;;4.20;;
7831;SDS011;3961;42.058;25.586;2023-04-06T10:56:09;5.60;;;4.57;;
7831;SDS011;3961;42.058;25.586;2023-04-06T10:58:44;6.60;;;4.70;;
7831;SDS011;3961;42.058;25.586;2023-04-06T11:01:12;6.07;;;5.43;;
7831;SDS011;3961;42.058;25.586;2023-04-06T11:03:43;10.70;;;5.50;;
7831;SDS011;3961;42.058;25.586;2023-04-06T11:06:22;7.43;;;5.73;;
7831;SDS011;3961;42.058;25.586;2023-04-06T11:08:54;6.53;;;5.80;;
7831;SDS011;3961;42.058;25.586;2023-04-06T11:11:21;6.47;;;5.63;;
7831;SDS011;3961;42.058;25.586;2023-04-06T11:16:19;7.30;;;5.10;;
7831;SDS011;3961;42.058;25.586;2023-04-06T11:18:46;9.70;;;5.87;;
7831;SDS011;3961;42.058;25.586;2023-04-06T11:24:19;6.83;;;5.70;;
7831;SDS011;3961;42.058;25.586;2023-04-06T11:26:55;6.50;;;5.70;;
7831;SDS011;3961;42.058;25.586;2023-04-06T11:29:23;6.77;;;5.83;;
7831;SDS011;3961;42.058;25.586;2023-04-06T11:31:54;12.53;;;5.53;;
7831;SDS011;3961;42.058;25.586;2023-04-06T11:34:24;5.57;;;4.97;;
7831;SDS011;3961;42.058;25.586;2023-04-06T11:36:59;4.40;;;4.00;;
7831;SDS011;3961;42.058;25.586;2023-04-06T11:39:39;5.13;;;4.10;;
7831;SDS011;3961;42.058;25.586;2023-04-06T11:42:08;7.90;;;6.00;;
7831;SDS011;3961;42.058;25.586;2023-04-06T11:44:35;6.57;;;5.23;;
7831;SDS011;3961;42.058;25.586;2023-04-06T11:47:08;7.13;;;5.47;;
7831;SDS011;3961;42.058;25.586;2023-04-06T11:49:39;6.70;;;5.70;;
7831;SDS011;3961;42.058;25.586;2023-04-06T11:52:19;8.20;;;6.00;;
7831;SDS011;3961;42.058;25.586;2023-04-06T11:54:48;7.17;;;5.37;;
7831;SDS011;3961;42.058;25.586;2023-04-06T11:57:14;8.17;;;5.10;;
7831;SDS011;3961;42.058;25.586;2023-04-06T11:59:40;6.10;;;3.90;;
7831;SDS011;3961;42.058;25.586;2023-04-06T12:02:06;4.73;;;4.17;;
7831;SDS011;3961;42.058;25.586;2023-04-06T12:04:31;4.93;;;4.47;;
7831;SDS011;3961;42.058;25.586;2023-04-06T12:06:57;10.23;;;5.53;;
7831;SDS011;3961;42.058;25.586;2023-04-06T12:09:23;5.03;;;4.40;;
7831;SDS011;3961;42.058;25.586;2023-04-06T12:11:49;7.13;;;4.27;;
7831;SDS011;3961;42.058;25.586;2023-04-06T12:14:15;9.60;;;4.00;;
7831;SDS011;3961;42.058;25.586;2023-04-06T12:16:41;4.70;;;4.10;;
7831;SDS011;3961;42.058;25.586;2023-04-06T12:19:07;12.83;;;4.00;;
7831;SDS011;3961;42.058;25.586;2023-04-06T12:21:33;5.50;;;4.83;;
7831;SDS011;3961;42.058;25.586;2023-04-06T12:24:02;12.07;;;7.87;;
7831;SDS011;3961;42.058;25.586;2023-04-06T12:26:27;4.27;;;3.87;;
7831;SDS011;3961;42.058;25.586;2023-04-06T12:28:53;5.47;;;4.20;;
7831;SDS011;3961;42.058;25.586;2023-04-06T12:31:19;4.63;;;3.93;;
7831;SDS011;3961;42.058;25.586;2023-04-06T12:33:47;5.90;;;4.40;;
7831;SDS011;3961;42.058;25.586;2023-04-06T12:36:14;7.07;;;5.17;;
7831;SDS011;3961;42.058;25.586;2023-04-06T12:38:41;4.83;;;4.33;;
7831;SDS011;3961;42.058;25.586;2023-04-06T12:41:07;4.87;;;4.10;;
7831;SDS011;3961;42.058;25.586;2023-04-06T12:43:33;5.80;;;4.27;;
7831;SDS011;3961;42.058;25.586;2023-04-06T12:45:59;4.87;;;4.37;;
7831;SDS011;3961;42.058;25.586;2023-04-06T12:48:25;5.13;;;3.93;;
7831;SDS011;3961;42.058;25.586;2023-04-06T12:50:58;4.77;;;4.13;;
7831;SDS011;3961;42.058;25.586;2023-04-06T12:53:25;7.17;;;4.07;;
7831;SDS011;3961;42.058;25.586;2023-04-06T12:55:53;6.60;;;4.23;;
7831;SDS011;3961;42.058;25.586;2023-04-06T12:58:19;5.30;;;4.40;;
7831;SDS011;3961;42.058;25.586;2023-04-06T13:00:46;6.40;;;4.40;;
7831;SDS011;3961;42.058;25.586;2023-04-06T13:03:12;4.40;;;3.97;;
7831;SDS011;3961;42.058;25.586;2023-04-06T13:05:43;7.30;;;4.70;;
7831;SDS011;3961;42.058;25.586;2023-04-06T13:08:10;4.90;;;4.07;;
7831;SDS011;3961;42.058;25.586;2023-04-06T13:10:36;5.33;;;4.33;;
7831;SDS011;3961;42.058;25.586;2023-04-06T13:13:02;8.93;;;4.40;;
7831;SDS011;3961;42.058;25.586;2023-04-06T13:15:28;8.27;;;4.23;;
7831;SDS011;3961;42.058;25.586;2023-04-06T13:17:53;5.97;;;4.83;;
7831;SDS011;3961;42.058;25.586;2023-04-06T13:20:19;6.30;;;4.90;;
7831;SDS011;3961;42.058;25.586;2023-04-06T13:22:44;7.27;;;5.43;;
7831;SDS011;3961;42.058;25.586;2023-04-06T13:25:10;5.80;;;4.50;;
7831;SDS011;3961;42.058;25.586;2023-04-06T13:27:36;4.40;;;3.90;;
7831;SDS011;3961;42.058;25.586;2023-04-06T13:30:02;5.77;;;4.27;;
7831;SDS011;3961;42.058;25.586;2023-04-06T13:32:28;7.10;;;6.20;;
7831;SDS011;3961;42.058;25.586;2023-04-06T13:34:55;6.07;;;5.43;;
7831;SDS011;3961;42.058;25.586;2023-04-06T13:37:21;6.33;;;4.33;;
7831;SDS011;3961;42.058;25.586;2023-04-06T13:39:46;5.67;;;4.60;;
7831;SDS011;3961;42.058;25.586;2023-04-06T13:42:12;5.87;;;4.77;;
7831;SDS011;3961;42.058;25.586;2023-04-06T13:44:38;5.60;;;4.67;;
7831;SDS011;3961;42.058;25.586;2023-04-06T13:47:03;5.70;;;4.70;;
7831;SDS011;3961;42.058;25.586;2023-04-06T13:49:29;6.07;;;4.53;;
7831;SDS011;3961;42.058;25.586;2023-04-06T13:51:55;6.60;;;4.27;;
7831;SDS011;3961;42.058;25.586;2023-04-06T13:54:20;5.33;;;4.80;;
7831;SDS011;3961;42.058;25.586;2023-04-06T13:56:46;15.13;;;9.90;;
7831;SDS011;3961;42.058;25.586;2023-04-06T13:59:12;5.77;;;4.70;;
7831;SDS011;3961;42.058;25.586;2023-04-06T14:01:37;12.40;;;4.53;;
7831;SDS011;3961;42.058;25.586;2023-04-06T14:04:03;14.63;;;5.07;;
7831;SDS011;3961;42.058;25.586;2023-04-06T14:06:28;6.60;;;4.23;;
7831;SDS011;3961;42.058;25.586;2023-04-06T14:08:54;6.53;;;4.60;;
7831;SDS011;3961;42.058;25.586;2023-04-06T14:11:19;4.30;;;3.73;;
7831;SDS011;3961;42.058;25.586;2023-04-06T14:13:45;5.03;;;4.10;;
7831;SDS011;3961;42.058;25.586;2023-04-06T14:16:11;4.67;;;3.60;;
7831;SDS011;3961;42.058;25.586;2023-04-06T14:18:37;5.97;;;4.07;;
7831;SDS011;3961;42.058;25.586;2023-04-06T14:21:02;4.50;;;3.77;;
7831;SDS011;3961;42.058;25.586;2023-04-06T14:23:28;4.13;;;3.70;;
7831;SDS011;3961;42.058;25.586;2023-04-06T14:26:01;4.20;;;3.60;;
7831;SDS011;3961;42.058;25.586;2023-04-06T14:28:30;4.80;;;4.10;;
7831;SDS011;3961;42.058;25.586;2023-04-06T14:30:58;10.97;;;3.97;;
7831;SDS011;3961;42.058;25.586;2023-04-06T14:33:28;5.63;;;3.77;;
7831;SDS011;3961;42.058;25.586;2023-04-06T14:35:55;4.33;;;3.60;;
7831;SDS011;3961;42.058;25.586;2023-04-06T14:38:21;3.97;;;3.40;;
7831;SDS011;3961;42.058;25.586;2023-04-06T14:40:47;6.17;;;4.13;;
7831;SDS011;3961;42.058;25.586;2023-04-06T14:43:13;4.50;;;3.30;;
7831;SDS011;3961;42.058;25.586;2023-04-06T14:45:38;4.60;;;3.70;;
7831;SDS011;3961;42.058;25.586;2023-04-06T14:48:04;3.30;;;3.00;;
7831;SDS011;3961;42.058;25.586;2023-04-06T14:50:37;3.77;;;3.10;;
7831;SDS011;3961;42.058;25.586;2023-04-06T14:53:03;5.17;;;3.20;;
7831;SDS011;3961;42.058;25.586;2023-04-06T14:55:28;3.47;;;3.03;;
7831;SDS011;3961;42.058;25.586;2023-04-06T14:57:54;3.30;;;2.90;;
7831;SDS011;3961;42.058;25.586;2023-04-06T15:00:19;4.40;;;3.37;;
7831;SDS011;3961;42.058;25.586;2023-04-06T15:02:45;4.37;;;3.83;;
7831;SDS011;3961;42.058;25.586;2023-04-06T15:05:10;7.13;;;3.87;;